sensor_id;sensor_type;location;lat;lon;timestamp;P1;durP1;ratioP1;P2;durP2;ratioP2
52342;SDS011;38277;51.972;4.624;2022-11-20T00:00:26;18.6;;;9.3;;
52342;SDS011;38277;51.972;4.624;2022-11-20T00:04:54;17.4;;;9.4;;
52342;SDS011;38277;51.972;4.624;2022-11-20T00:09:34;16.5;;;8.5;;
52342;SDS011;38277;51.972;4.624;2022-11-20T00:13:50;17.2;;;9.4;;
52342;SDS011;38277;51.972;4.624;2022-11-20T00:18:37;17.5;;;9.3;;
52342;SDS011;38277;51.972;4.624;2022-11-20T00:22:52;17.8;;;8.2;;
52342;SDS011;38277;51.972;4.624;2022-11-20T00:27:18;16.9;;;8.0;;
52342;SDS011;38277;51.972;4.624;2022-11-20T00:32:33;17.6;;;8.6;;
52342;SDS011;38277;51.972;4.624;2022-11-20T00:36:36;15.7;;;8.4;;
52342;SDS011;38277;51.972;4.624;2022-11-20T00:41:39;18.0;;;9.1;;
52342;SDS011;38277;51.972;4.624;2022-11-20T00:45:44;18.3;;;8.9;;
52342;SDS011;38277;51.972;4.624;2022-11-20T00:50:07;19.1;;;10.2;;
52342;SDS011;38277;51.972;4.624;2022-11-20T00:59:35;18.9;;;9.8;;
52342;SDS011;38277;51.972;4.624;2022-11-20T01:03:39;16.4;;;8.8;;
52342;SDS011;38277;51.972;4.624;2022-11-20T01:08:12;17.9;;;9.1;;
52342;SDS011;38277;51.972;4.624;2022-11-20T01:12:20;15.4;;;7.9;;
52342;SDS011;38277;51.972;4.624;2022-11-20T01:17:14;16.4;;;7.9;;
52342;SDS011;38277;51.972;4.624;2022-11-20T01:21:48;17.5;;;8.5;;
52342;SDS011;38277;51.972;4.624;2022-11-20T01:26:15;16.1;;;8.6;;
52342;SDS011;38277;51.972;4.624;2022-11-20T01:31:11;19.8;;;10.2;;
52342;SDS011;38277;51.972;4.624;2022-11-20T01:35:09;16.8;;;9.0;;
52342;SDS011;38277;51.972;4.624;2022-11-20T01:39:44;18.0;;;9.1;;
52342;SDS011;38277;51.972;4.624;2022-11-20T01:43:50;19.3;;;9.5;;
52342;SDS011;38277;51.972;4.624;2022-11-20T01:48:45;23.1;;;12.2;;
52342;SDS011;38277;51.972;4.624;2022-11-20T01:52:59;22.3;;;11.7;;
52342;SDS011;38277;51.972;4.624;2022-11-20T01:57:38;20.9;;;10.8;;
52342;SDS011;38277;51.972;4.624;2022-11-20T02:02:07;20.1;;;11.0;;
52342;SDS011;38277;51.972;4.624;2022-11-20T02:10:54;22.5;;;12.9;;
52342;SDS011;38277;51.972;4.624;2022-11-20T02:15:19;21.7;;;12.7;;
52342;SDS011;38277;51.972;4.624;2022-11-20T02:19:54;21.4;;;11.5;;
52342;SDS011;38277;51.972;4.624;2022-11-20T02:28:52;21.6;;;12.1;;
52342;SDS011;38277;51.972;4.624;2022-11-20T02:33:21;22.4;;;11.3;;
52342;SDS011;38277;51.972;4.624;2022-11-20T02:37:59;23.7;;;13.3;;
52342;SDS011;38277;51.972;4.624;2022-11-20T02:47:05;22.3;;;12.4;;
52342;SDS011;38277;51.972;4.624;2022-11-20T02:51:45;23.0;;;12.4;;
52342;SDS011;38277;51.972;4.624;2022-11-20T02:55:54;32.5;;;19.7;;
52342;SDS011;38277;51.972;4.624;2022-11-20T03:05:16;39.2;;;24.2;;
52342;SDS011;38277;51.972;4.624;2022-11-20T03:09:33;41.6;;;24.9;;
52342;SDS011;38277;51.972;4.624;2022-11-20T03:13:49;34.4;;;21.6;;
52342;SDS011;38277;51.972;4.624;2022-11-20T03:22:59;32.0;;;18.8;;
52342;SDS011;38277;51.972;4.624;2022-11-20T03:27:42;28.5;;;16.9;;
52342;SDS011;38277;51.972;4.624;2022-11-20T03:32:10;23.2;;;13.7;;
52342;SDS011;38277;51.972;4.624;2022-11-20T03:40:57;22.4;;;13.3;;
52342;SDS011;38277;51.972;4.624;2022-11-20T03:45:41;23.9;;;13.5;;
52342;SDS011;38277;51.972;4.624;2022-11-20T03:49:57;20.2;;;12.2;;
52342;SDS011;38277;51.972;4.624;2022-11-20T03:54:23;21.3;;;11.9;;
52342;SDS011;38277;51.972;4.624;2022-11-20T03:59:09;25.1;;;14.5;;
52342;SDS011;38277;51.972;4.624;2022-11-20T04:08:08;22.7;;;12.4;;
52342;SDS011;38277;51.972;4.624;2022-11-20T04:16:50;23.5;;;12.9;;
52342;SDS011;38277;51.972;4.624;2022-11-20T04:21:41;23.3;;;11.8;;
52342;SDS011;38277;51.972;4.624;2022-11-20T04:26:00;25.5;;;12.4;;
52342;SDS011;38277;51.972;4.624;2022-11-20T04:30:41;25.1;;;12.9;;
52342;SDS011;38277;51.972;4.624;2022-11-20T04:35:38;21.8;;;11.8;;
52342;SDS011;38277;51.972;4.624;2022-11-20T04:39:29;19.8;;;10.8;;
52342;SDS011;38277;51.972;4.624;2022-11-20T04:44:12;20.9;;;11.2;;
52342;SDS011;38277;51.972;4.624;2022-11-20T04:48:39;23.3;;;12.3;;
52342;SDS011;38277;51.972;4.624;2022-11-20T04:53:32;20.6;;;11.3;;
52342;SDS011;38277;51.972;4.624;2022-11-20T04:57:41;23.0;;;11.7;;
52342;SDS011;38277;51.972;4.624;2022-11-20T05:02:06;18.3;;;9.7;;
52342;SDS011;38277;51.972;4.624;2022-11-20T05:10:47;18.9;;;10.0;;
52342;SDS011;38277;51.972;4.624;2022-11-20T05:15:43;18.2;;;8.6;;
52342;SDS011;38277;51.972;4.624;2022-11-20T05:20:14;19.5;;;10.4;;
52342;SDS011;38277;51.972;4.624;2022-11-20T05:24:30;23.7;;;11.8;;
52342;SDS011;38277;51.972;4.624;2022-11-20T05:33:27;18.3;;;9.2;;
52342;SDS011;38277;51.972;4.624;2022-11-20T05:38:17;19.0;;;9.8;;
52342;SDS011;38277;51.972;4.624;2022-11-20T05:42:23;19.9;;;10.7;;
52342;SDS011;38277;51.972;4.624;2022-11-20T05:51:31;18.8;;;9.7;;
52342;SDS011;38277;51.972;4.624;2022-11-20T05:56:30;19.3;;;9.3;;
52342;SDS011;38277;51.972;4.624;2022-11-20T06:00:37;19.7;;;10.4;;
52342;SDS011;38277;51.972;4.624;2022-11-20T06:05:30;17.7;;;9.2;;
52342;SDS011;38277;51.972;4.624;2022-11-20T06:09:42;20.5;;;10.6;;
52342;SDS011;38277;51.972;4.624;2022-11-20T06:14:32;18.3;;;9.6;;
52342;SDS011;38277;51.972;4.624;2022-11-20T06:18:44;23.3;;;10.3;;
52342;SDS011;38277;51.972;4.624;2022-11-20T06:27:45;19.1;;;10.0;;
52342;SDS011;38277;51.972;4.624;2022-11-20T06:32:25;21.6;;;11.2;;
52342;SDS011;38277;51.972;4.624;2022-11-20T06:36:45;21.0;;;11.1;;
52342;SDS011;38277;51.972;4.624;2022-11-20T06:41:20;23.4;;;12.8;;
52342;SDS011;38277;51.972;4.624;2022-11-20T06:45:45;26.1;;;12.0;;
52342;SDS011;38277;51.972;4.624;2022-11-20T06:50:15;21.4;;;11.2;;
52342;SDS011;38277;51.972;4.624;2022-11-20T06:54:39;22.0;;;11.5;;
52342;SDS011;38277;51.972;4.624;2022-11-20T07:03:20;24.9;;;13.3;;
52342;SDS011;38277;51.972;4.624;2022-11-20T07:08:28;25.3;;;12.9;;
52342;SDS011;38277;51.972;4.624;2022-11-20T07:12:17;23.3;;;12.4;;
52342;SDS011;38277;51.972;4.624;2022-11-20T07:17:38;25.0;;;12.8;;
52342;SDS011;38277;51.972;4.624;2022-11-20T07:21:34;25.3;;;12.8;;
52342;SDS011;38277;51.972;4.624;2022-11-20T07:26:28;24.2;;;13.4;;
52342;SDS011;38277;51.972;4.624;2022-11-20T07:30:37;24.3;;;13.4;;
52342;SDS011;38277;51.972;4.624;2022-11-20T07:35:30;26.2;;;14.1;;
52342;SDS011;38277;51.972;4.624;2022-11-20T07:39:44;23.6;;;13.0;;
52342;SDS011;38277;51.972;4.624;2022-11-20T07:44:17;24.3;;;12.9;;
52342;SDS011;38277;51.972;4.624;2022-11-20T07:48:43;27.2;;;14.1;;
52342;SDS011;38277;51.972;4.624;2022-11-20T07:53:24;23.7;;;12.9;;
52342;SDS011;38277;51.972;4.624;2022-11-20T07:57:22;22.8;;;12.4;;
52342;SDS011;38277;51.972;4.624;2022-11-20T08:02:26;26.7;;;12.8;;
52342;SDS011;38277;51.972;4.624;2022-11-20T08:06:20;25.8;;;14.3;;
52342;SDS011;38277;51.972;4.624;2022-11-20T08:11:37;25.7;;;14.0;;
52342;SDS011;38277;51.972;4.624;2022-11-20T08:15:32;23.4;;;13.0;;
52342;SDS011;38277;51.972;4.624;2022-11-20T08:20:32;24.1;;;13.4;;
52342;SDS011;38277;51.972;4.624;2022-11-20T08:24:24;23.7;;;12.9;;
52342;SDS011;38277;51.972;4.624;2022-11-20T08:29:35;21.0;;;12.6;;
52342;SDS011;38277;51.972;4.624;2022-11-20T08:33:44;23.4;;;12.6;;
52342;SDS011;38277;51.972;4.624;2022-11-20T08:38:26;23.1;;;13.6;;
52342;SDS011;38277;51.972;4.624;2022-11-20T08:42:28;22.0;;;12.2;;
52342;SDS011;38277;51.972;4.624;2022-11-20T08:47:33;24.0;;;13.4;;
52342;SDS011;38277;51.972;4.624;2022-11-20T08:51:21;25.0;;;14.3;;
52342;SDS011;38277;51.972;4.624;2022-11-20T08:56:25;27.9;;;15.4;;
52342;SDS011;38277;51.972;4.624;2022-11-20T09:00:17;25.3;;;13.9;;
52342;SDS011;38277;51.972;4.624;2022-11-20T09:05:14;25.8;;;14.0;;
52342;SDS011;38277;51.972;4.624;2022-11-20T09:09:35;24.5;;;14.6;;
52342;SDS011;38277;51.972;4.624;2022-11-20T09:14:39;27.7;;;15.7;;
52342;SDS011;38277;51.972;4.624;2022-11-20T09:27:22;24.5;;;14.1;;
52342;SDS011;38277;51.972;4.624;2022-11-20T09:31:48;25.8;;;15.4;;
52342;SDS011;38277;51.972;4.624;2022-11-20T09:36:43;27.0;;;16.2;;
52342;SDS011;38277;51.972;4.624;2022-11-20T09:40:49;24.3;;;14.2;;
52342;SDS011;38277;51.972;4.624;2022-11-20T09:46:20;26.5;;;14.4;;
52342;SDS011;38277;51.972;4.624;2022-11-20T09:50:55;25.1;;;15.0;;
52342;SDS011;38277;51.972;4.624;2022-11-20T09:54:37;25.5;;;15.6;;
52342;SDS011;38277;51.972;4.624;2022-11-20T09:58:54;25.1;;;13.9;;
52342;SDS011;38277;51.972;4.624;2022-11-20T10:03:39;24.6;;;14.8;;
52342;SDS011;38277;51.972;4.624;2022-11-20T10:08:14;27.6;;;15.1;;
52342;SDS011;38277;51.972;4.624;2022-11-20T10:13:02;25.9;;;14.8;;
52342;SDS011;38277;51.972;4.624;2022-11-20T10:17:31;24.1;;;13.0;;
52342;SDS011;38277;51.972;4.624;2022-11-20T10:23:17;26.4;;;15.1;;
52342;SDS011;38277;51.972;4.624;2022-11-20T10:28:52;27.6;;;16.0;;
52342;SDS011;38277;51.972;4.624;2022-11-20T10:30:31;24.4;;;14.7;;
52342;SDS011;38277;51.972;4.624;2022-11-20T10:35:32;26.4;;;14.8;;
52342;SDS011;38277;51.972;4.624;2022-11-20T10:39:25;26.6;;;14.7;;
52342;SDS011;38277;51.972;4.624;2022-11-20T10:44:15;30.6;;;16.2;;
52342;SDS011;38277;51.972;4.624;2022-11-20T10:48:25;26.5;;;15.5;;
52342;SDS011;38277;51.972;4.624;2022-11-20T10:55:39;31.1;;;18.2;;
52342;SDS011;38277;51.972;4.624;2022-11-20T10:58:52;29.7;;;17.1;;
52342;SDS011;38277;51.972;4.624;2022-11-20T11:02:23;29.9;;;18.6;;
52342;SDS011;38277;51.972;4.624;2022-11-20T11:06:34;29.1;;;16.6;;
52342;SDS011;38277;51.972;4.624;2022-11-20T11:10:56;29.4;;;16.6;;
52342;SDS011;38277;51.972;4.624;2022-11-20T11:15:42;31.0;;;18.1;;
52342;SDS011;38277;51.972;4.624;2022-11-20T11:19:57;29.0;;;18.1;;
52342;SDS011;38277;51.972;4.624;2022-11-20T11:24:52;30.3;;;17.5;;
52342;SDS011;38277;51.972;4.624;2022-11-20T11:28:59;34.0;;;20.3;;
52342;SDS011;38277;51.972;4.624;2022-11-20T11:33:38;35.0;;;19.7;;
52342;SDS011;38277;51.972;4.624;2022-11-20T11:38:14;34.9;;;20.0;;
52342;SDS011;38277;51.972;4.624;2022-11-20T11:42:30;36.7;;;21.0;;
52342;SDS011;38277;51.972;4.624;2022-11-20T11:47:26;33.9;;;20.0;;
52342;SDS011;38277;51.972;4.624;2022-11-20T11:51:38;32.3;;;18.7;;
52342;SDS011;38277;51.972;4.624;2022-11-20T12:00:41;33.8;;;19.0;;
52342;SDS011;38277;51.972;4.624;2022-11-20T12:05:01;35.4;;;23.1;;
52342;SDS011;38277;51.972;4.624;2022-11-20T12:09:24;40.1;;;21.2;;
52342;SDS011;38277;51.972;4.624;2022-11-20T12:23:32;34.8;;;20.4;;
52342;SDS011;38277;51.972;4.624;2022-11-20T12:28:41;36.3;;;21.6;;
52342;SDS011;38277;51.972;4.624;2022-11-20T12:37:16;39.2;;;21.0;;
52342;SDS011;38277;51.972;4.624;2022-11-20T12:41:02;39.4;;;21.5;;
52342;SDS011;38277;51.972;4.624;2022-11-20T12:46:18;39.5;;;22.2;;
52342;SDS011;38277;51.972;4.624;2022-11-20T12:51:42;40.7;;;23.0;;
52342;SDS011;38277;51.972;4.624;2022-11-20T13:00:25;46.5;;;26.0;;
52342;SDS011;38277;51.972;4.624;2022-11-20T13:03:53;40.9;;;23.4;;
52342;SDS011;38277;51.972;4.624;2022-11-20T13:12:48;42.4;;;23.8;;
52342;SDS011;38277;51.972;4.624;2022-11-20T13:17:00;44.4;;;25.1;;
52342;SDS011;38277;51.972;4.624;2022-11-20T13:21:40;45.9;;;25.7;;
52342;SDS011;38277;51.972;4.624;2022-11-20T13:26:03;41.2;;;23.4;;
52342;SDS011;38277;51.972;4.624;2022-11-20T13:30:30;48.4;;;28.1;;
52342;SDS011;38277;51.972;4.624;2022-11-20T13:35:35;40.1;;;21.9;;
52342;SDS011;38277;51.972;4.624;2022-11-20T13:39:28;40.8;;;22.1;;
52342;SDS011;38277;51.972;4.624;2022-11-20T13:48:24;40.6;;;25.2;;
52342;SDS011;38277;51.972;4.624;2022-11-20T13:55:00;38.5;;;22.3;;
52342;SDS011;38277;51.972;4.624;2022-11-20T13:59:36;44.6;;;24.9;;
52342;SDS011;38277;51.972;4.624;2022-11-20T14:15:40;43.9;;;23.9;;
52342;SDS011;38277;51.972;4.624;2022-11-20T14:20:13;41.9;;;23.1;;
52342;SDS011;38277;51.972;4.624;2022-11-20T14:29:34;44.7;;;26.3;;
52342;SDS011;38277;51.972;4.624;2022-11-20T14:38:46;45.6;;;25.9;;
52342;SDS011;38277;51.972;4.624;2022-11-20T14:42:27;52.1;;;27.5;;
52342;SDS011;38277;51.972;4.624;2022-11-20T14:47:35;50.2;;;27.1;;
52342;SDS011;38277;51.972;4.624;2022-11-20T14:51:38;46.1;;;26.0;;
52342;SDS011;38277;51.972;4.624;2022-11-20T14:56:13;50.2;;;26.1;;
52342;SDS011;38277;51.972;4.624;2022-11-20T15:00:21;44.3;;;24.5;;
52342;SDS011;38277;51.972;4.624;2022-11-20T15:05:21;47.3;;;26.4;;
52342;SDS011;38277;51.972;4.624;2022-11-20T15:10:20;47.7;;;26.2;;
52342;SDS011;38277;51.972;4.624;2022-11-20T15:14:57;44.7;;;25.7;;
52342;SDS011;38277;51.972;4.624;2022-11-20T15:28:16;49.3;;;26.0;;
52342;SDS011;38277;51.972;4.624;2022-11-20T15:32:49;46.2;;;24.4;;
52342;SDS011;38277;51.972;4.624;2022-11-20T15:36:35;47.5;;;24.2;;
52342;SDS011;38277;51.972;4.624;2022-11-20T16:12:43;37.2;;;21.5;;
52342;SDS011;38277;51.972;4.624;2022-11-20T16:18:17;39.5;;;21.2;;
52342;SDS011;38277;51.972;4.624;2022-11-20T16:21:26;36.1;;;21.6;;
52342;SDS011;38277;51.972;4.624;2022-11-20T16:26:08;34.9;;;20.3;;
52342;SDS011;38277;51.972;4.624;2022-11-20T16:30:39;35.5;;;21.2;;
52342;SDS011;38277;51.972;4.624;2022-11-20T16:35:26;38.2;;;22.4;;
52342;SDS011;38277;51.972;4.624;2022-11-20T16:39:42;39.9;;;24.2;;
52342;SDS011;38277;51.972;4.624;2022-11-20T16:43:47;40.0;;;22.8;;
52342;SDS011;38277;51.972;4.624;2022-11-20T16:48:28;38.4;;;22.0;;
52342;SDS011;38277;51.972;4.624;2022-11-20T16:53:20;44.6;;;24.5;;
52342;SDS011;38277;51.972;4.624;2022-11-20T16:57:20;40.0;;;23.0;;
52342;SDS011;38277;51.972;4.624;2022-11-20T17:01:55;33.4;;;20.4;;
52342;SDS011;38277;51.972;4.624;2022-11-20T17:07:33;33.8;;;22.0;;
52342;SDS011;38277;51.972;4.624;2022-11-20T17:11:36;31.7;;;20.5;;
52342;SDS011;38277;51.972;4.624;2022-11-20T17:15:39;35.6;;;20.2;;
52342;SDS011;38277;51.972;4.624;2022-11-20T17:20:07;32.5;;;19.0;;
52342;SDS011;38277;51.972;4.624;2022-11-20T17:24:23;35.7;;;19.1;;
52342;SDS011;38277;51.972;4.624;2022-11-20T17:29:40;50.1;;;27.1;;
52342;SDS011;38277;51.972;4.624;2022-11-20T17:33:32;32.8;;;19.8;;
52342;SDS011;38277;51.972;4.624;2022-11-20T17:38:08;31.0;;;17.3;;
52342;SDS011;38277;51.972;4.624;2022-11-20T17:42:31;27.5;;;15.4;;
52342;SDS011;38277;51.972;4.624;2022-11-20T17:47:37;27.2;;;16.7;;
52342;SDS011;38277;51.972;4.624;2022-11-20T17:51:56;28.4;;;16.3;;
52342;SDS011;38277;51.972;4.624;2022-11-20T17:55:54;23.9;;;13.0;;
52342;SDS011;38277;51.972;4.624;2022-11-20T18:00:55;26.2;;;14.4;;
52342;SDS011;38277;51.972;4.624;2022-11-20T18:05:01;22.1;;;13.4;;
52342;SDS011;38277;51.972;4.624;2022-11-20T18:09:26;24.7;;;14.4;;
52342;SDS011;38277;51.972;4.624;2022-11-20T18:14:29;22.0;;;12.6;;
52342;SDS011;38277;51.972;4.624;2022-11-20T18:18:23;24.6;;;14.1;;
52342;SDS011;38277;51.972;4.624;2022-11-20T18:22:54;24.9;;;15.1;;
52342;SDS011;38277;51.972;4.624;2022-11-20T18:27:35;25.3;;;14.8;;
52342;SDS011;38277;51.972;4.624;2022-11-20T18:32:26;24.0;;;13.5;;
52342;SDS011;38277;51.972;4.624;2022-11-20T18:36:39;22.4;;;13.5;;
52342;SDS011;38277;51.972;4.624;2022-11-20T18:41:09;23.1;;;13.4;;
52342;SDS011;38277;51.972;4.624;2022-11-20T18:45:42;28.2;;;15.7;;
52342;SDS011;38277;51.972;4.624;2022-11-20T18:50:38;22.1;;;12.8;;
52342;SDS011;38277;51.972;4.624;2022-11-20T19:12:34;20.9;;;12.0;;
52342;SDS011;38277;51.972;4.624;2022-11-20T19:21:34;21.1;;;12.3;;
52342;SDS011;38277;51.972;4.624;2022-11-20T19:39:36;24.1;;;14.3;;
52342;SDS011;38277;51.972;4.624;2022-11-20T20:02:27;23.3;;;13.0;;
52342;SDS011;38277;51.972;4.624;2022-11-20T20:06:43;26.1;;;16.4;;
52342;SDS011;38277;51.972;4.624;2022-11-20T20:10:52;24.1;;;14.8;;
52342;SDS011;38277;51.972;4.624;2022-11-20T20:15:33;25.0;;;13.5;;
52342;SDS011;38277;51.972;4.624;2022-11-20T20:20:31;27.2;;;15.1;;
52342;SDS011;38277;51.972;4.624;2022-11-20T20:24:22;25.5;;;14.1;;
52342;SDS011;38277;51.972;4.624;2022-11-20T20:28:51;23.3;;;14.1;;
52342;SDS011;38277;51.972;4.624;2022-11-20T20:33:38;22.8;;;13.1;;
52342;SDS011;38277;51.972;4.624;2022-11-20T20:38:56;25.0;;;13.6;;
52342;SDS011;38277;51.972;4.624;2022-11-20T20:43:19;24.6;;;14.6;;
52342;SDS011;38277;51.972;4.624;2022-11-20T20:46:52;25.0;;;13.9;;
52342;SDS011;38277;51.972;4.624;2022-11-20T20:51:35;24.6;;;14.1;;
52342;SDS011;38277;51.972;4.624;2022-11-20T20:56:30;23.4;;;14.2;;
52342;SDS011;38277;51.972;4.624;2022-11-20T21:00:38;22.0;;;12.2;;
52342;SDS011;38277;51.972;4.624;2022-11-20T21:04:58;22.8;;;13.8;;
52342;SDS011;38277;51.972;4.624;2022-11-20T21:09:27;21.1;;;12.7;;
52342;SDS011;38277;51.972;4.624;2022-11-20T21:14:20;23.2;;;13.1;;
52342;SDS011;38277;51.972;4.624;2022-11-20T21:18:28;24.3;;;15.1;;
52342;SDS011;38277;51.972;4.624;2022-11-20T21:40:48;24.3;;;15.0;;
52342;SDS011;38277;51.972;4.624;2022-11-20T21:45:40;25.4;;;15.1;;
52342;SDS011;38277;51.972;4.624;2022-11-20T21:50:45;25.1;;;13.8;;
52342;SDS011;38277;51.972;4.624;2022-11-20T21:55:03;23.0;;;13.6;;
52342;SDS011;38277;51.972;4.624;2022-11-20T21:59:00;22.9;;;12.7;;
52342;SDS011;38277;51.972;4.624;2022-11-20T22:04:11;20.0;;;12.1;;
52342;SDS011;38277;51.972;4.624;2022-11-20T22:07:55;21.3;;;12.1;;
52342;SDS011;38277;51.972;4.624;2022-11-20T22:12:24;21.4;;;12.8;;
52342;SDS011;38277;51.972;4.624;2022-11-20T22:21:43;21.8;;;12.3;;
52342;SDS011;38277;51.972;4.624;2022-11-20T22:30:37;20.0;;;11.9;;
52342;SDS011;38277;51.972;4.624;2022-11-20T22:34:53;24.7;;;15.3;;
52342;SDS011;38277;51.972;4.624;2022-11-20T22:39:37;18.4;;;11.4;;
52342;SDS011;38277;51.972;4.624;2022-11-20T22:43:55;18.0;;;11.1;;
52342;SDS011;38277;51.972;4.624;2022-11-20T22:48:47;18.9;;;11.2;;
52342;SDS011;38277;51.972;4.624;2022-11-20T22:52:53;22.7;;;13.1;;
52342;SDS011;38277;51.972;4.624;2022-11-20T22:57:54;21.5;;;13.1;;
52342;SDS011;38277;51.972;4.624;2022-11-20T23:02:18;18.5;;;11.1;;
52342;SDS011;38277;51.972;4.624;2022-11-20T23:24:45;22.2;;;12.4;;
52342;SDS011;38277;51.972;4.624;2022-11-20T23:29:53;20.2;;;12.1;;
52342;SDS011;38277;51.972;4.624;2022-11-20T23:33:26;24.6;;;13.9;;
52342;SDS011;38277;51.972;4.624;2022-11-20T23:38:16;23.0;;;13.7;;
52342;SDS011;38277;51.972;4.624;2022-11-20T23:42:16;23.6;;;14.0;;
52342;SDS011;38277;51.972;4.624;2022-11-20T23:47:23;22.2;;;13.3;;
52342;SDS011;38277;51.972;4.624;2022-11-20T23:56:38;24.7;;;14.7;;
